Time;durP1;ratioP1;P1;durP2;ratioP2;P2;SDS_P1;SDS_P2;PMS_P1;PMS_P2;Temp;Humidity;BMP_temperature;BMP_pressure;BME280_temperature;BME280_humidity;BME280_pressure;Samples;Min_cycle;Max_cycle;Signal;HPM_P1;HPM_P2
2023/09/27 00:01:50;;;;;;;9.23;4.53;;;;;;;21.06;67.47;100117.31;5040224;28;20044;-67
2023/09/27 00:04:16;;;;;;;8.30;4.20;;;;;;;21.02;67.09;100116.13;5040820;28;20033;-65
2023/09/27 00:06:41;;;;;;;7.13;3.75;;;;;;;20.99;65.89;100128.16;5049715;28;20041;-65
2023/09/27 00:09:08;;;;;;;7.75;4.32;;;;;;;20.98;66.67;100129.19;5040377;28;20045;-65
2023/09/27 00:11:34;;;;;;;9.80;4.32;;;;;;;20.97;66.59;100124.03;5040843;28;20041;-65
2023/09/27 00:14:00;;;;;;;10.07;4.30;;;;;;;20.94;67.10;100119.09;5041362;28;20047;-67
2023/09/27 00:16:25;;;;;;;7.90;4.30;;;;;;;20.95;67.38;100115.34;5040869;28;20318;-67
2023/09/27 00:18:51;;;;;;;8.65;4.43;;;;;;;20.82;67.29;100113.59;5040899;28;20083;-67
2023/09/27 00:21:17;;;;;;;12.82;4.43;;;;;;;20.80;67.85;100104.06;5040271;28;20339;-67
2023/09/27 00:23:42;;;;;;;7.78;3.63;;;;;;;20.72;68.38;100113.25;5040533;28;20100;-64
2023/09/27 00:26:08;;;;;;;8.43;3.85;;;;;;;20.73;68.44;100110.31;5048833;28;20025;-65
2023/09/27 00:28:33;;;;;;;7.13;4.30;;;;;;;20.55;68.66;100107.56;5040409;28;20052;-65
2023/09/27 00:30:59;;;;;;;9.15;4.28;;;;;;;20.54;69.19;100105.09;5042559;28;20037;-67
2023/09/27 00:33:24;;;;;;;9.13;4.00;;;;;;;20.45;69.24;100106.41;5043937;28;20061;-67
2023/09/27 00:35:50;;;;;;;8.18;4.10;;;;;;;20.43;69.34;100103.09;5044080;28;20037;-65
2023/09/27 00:38:15;;;;;;;8.80;4.15;;;;;;;20.46;69.19;100094.59;5044271;28;20045;-64
2023/09/27 00:40:47;;;;;;;8.80;4.20;;;;;;;20.51;69.07;100094.78;5044277;28;20036;-67
2023/09/27 00:43:30;;;;;;;7.82;4.07;;;;;;;20.35;69.13;100082.66;5050780;28;20236;-67
2023/09/27 00:46:06;;;;;;;11.63;4.00;;;;;;;20.28;69.15;100095.31;5044408;28;20051;-67
2023/09/27 00:48:35;;;;;;;7.30;3.58;;;;;;;20.22;69.46;100099.69;5054577;28;20069;-67
2023/09/27 00:51:01;;;;;;;8.65;4.18;;;;;;;20.22;69.04;100098.88;5045181;28;20033;-66
2023/09/27 00:53:30;;;;;;;9.88;4.40;;;;;;;20.21;69.46;100100.72;5044805;28;20048;-67
2023/09/27 00:55:56;;;;;;;9.63;4.50;;;;;;;20.19;69.48;100096.59;5057711;28;20037;-67
2023/09/27 00:58:23;;;;;;;6.72;3.85;;;;;;;20.10;69.55;100098.72;5047163;28;20274;-65
2023/09/27 01:00:50;;;;;;;9.65;4.50;;;;;;;20.04;70.13;100095.03;5043573;28;20029;-64
2023/09/27 01:03:16;;;;;;;9.77;4.32;;;;;;;20.02;70.10;100090.91;5043789;28;20033;-67
2023/09/27 01:05:42;;;;;;;9.35;4.85;;;;;;;20.01;69.88;100086.56;5051145;28;20041;-67
2023/09/27 01:08:08;;;;;;;6.93;4.97;;;;;;;19.98;70.23;100087.00;5044143;28;20223;-67
2023/09/27 01:10:37;;;;;;;8.82;4.55;;;;;;;20.00;70.55;100091.13;5042812;28;20045;-67
2023/09/27 01:13:03;;;;;;;8.10;4.63;;;;;;;20.03;70.34;100084.50;5051679;28;20047;-64
2023/09/27 01:15:29;;;;;;;8.05;4.20;;;;;;;20.02;70.41;100090.91;5041714;28;20097;-64
2023/09/27 01:17:59;;;;;;;10.68;4.68;;;;;;;20.02;70.49;100089.06;5044438;28;20029;-65
2023/09/27 01:20:26;;;;;;;11.40;4.50;;;;;;;20.03;70.41;100092.56;5048893;28;20049;-67
2023/09/27 01:23:10;;;;;;;7.97;4.22;;;;;;;20.00;70.55;100091.13;5042859;28;20044;-67
2023/09/27 01:25:37;;;;;;;9.30;4.35;;;;;;;20.01;70.00;100092.78;5049230;28;20074;-67
2023/09/27 01:28:08;;;;;;;8.95;4.18;;;;;;;20.02;69.51;100093.59;5045222;28;20232;-65
2023/09/27 01:30:35;;;;;;;6.50;3.92;;;;;;;19.99;69.46;100089.47;5042870;28;20240;-67
2023/09/27 01:33:10;;;;;;;10.75;4.50;;;;;;;19.87;70.14;100091.19;5042456;28;20230;-65
2023/09/27 01:35:41;;;;;;;6.07;3.92;;;;;;;19.81;70.98;100089.38;5042770;28;20041;-65
2023/09/27 01:38:08;;;;;;;7.30;3.80;;;;;;;19.77;71.68;100090.84;5043710;28;20029;-67
2023/09/27 01:40:38;;;;;;;9.93;4.53;;;;;;;19.80;71.75;100095.78;5041994;28;20104;-65
2023/09/27 01:43:04;;;;;;;9.45;3.88;;;;;;;19.80;72.26;100085.03;5042563;28;20264;-65
2023/09/27 01:45:30;;;;;;;10.30;4.05;;;;;;;19.69;72.97;100082.97;5042407;28;20033;-65
2023/09/27 01:47:57;;;;;;;7.43;4.68;;;;;;;19.56;73.95;100086.53;5042767;28;20048;-67
2023/09/27 01:50:24;;;;;;;7.85;4.38;;;;;;;19.51;74.30;100086.31;5042136;28;20033;-65
2023/09/27 01:52:51;;;;;;;8.00;4.75;;;;;;;19.46;74.70;100084.28;5042394;28;20236;-67
2023/09/27 01:55:16;;;;;;;8.55;4.65;;;;;;;19.37;75.39;100080.16;5043583;28;20204;-67
2023/09/27 01:57:42;;;;;;;10.55;4.70;;;;;;;19.39;75.60;100086.16;5042895;28;20041;-65
2023/09/27 02:00:09;;;;;;;11.20;4.82;;;;;;;19.36;75.75;100085.75;5042530;28;20109;-67
2023/09/27 02:02:35;;;;;;;7.55;4.03;;;;;;;19.41;75.66;100086.75;5042113;28;20071;-67
2023/09/27 02:05:00;;;;;;;8.15;4.43;;;;;;;19.45;75.46;100087.16;5041906;28;20034;-64
2023/09/27 02:07:26;;;;;;;9.45;4.55;;;;;;;19.46;75.36;100081.59;5042401;28;20435;-67
2023/09/27 02:09:51;;;;;;;7.88;4.32;;;;;;;19.51;75.28;100085.50;5041998;28;20043;-65
2023/09/27 02:12:16;;;;;;;18.80;5.95;;;;;;;19.45;75.42;100084.47;5042425;28;20044;-65
2023/09/27 02:14:42;;;;;;;8.05;4.53;;;;;;;19.48;75.54;100081.38;5050546;28;20037;-67
2023/09/27 02:17:07;;;;;;;11.55;5.18;;;;;;;19.52;75.40;100077.25;5042152;28;20065;-67
2023/09/27 02:19:34;;;;;;;6.97;4.10;;;;;;;19.52;75.18;100074.56;5051049;28;20046;-65
2023/09/27 02:22:00;;;;;;;9.48;4.25;;;;;;;19.12;76.83;100084.56;5042555;28;20033;-65
2023/09/27 02:24:25;;;;;;;8.50;4.82;;;;;;;18.95;78.18;100081.50;5042658;28;20099;-65
2023/09/27 02:26:53;;;;;;;8.10;4.85;;;;;;;19.08;77.75;100078.78;5041724;28;20033;-65
2023/09/27 02:29:19;;;;;;;9.80;5.03;;;;;;;19.21;76.82;100069.06;5041579;28;20036;-67
2023/09/27 02:31:44;;;;;;;14.98;4.85;;;;;;;19.22;76.52;100073.41;5041592;28;20045;-65
2023/09/27 02:34:10;;;;;;;12.43;5.22;;;;;;;19.18;76.48;100075.66;5042134;28;20041;-67
2023/09/27 02:36:35;;;;;;;8.55;3.92;;;;;;;19.15;76.43;100076.09;5042068;28;20041;-65
2023/09/27 02:39:01;;;;;;;8.20;4.70;;;;;;;19.16;76.24;100077.75;5042360;28;20034;-67
2023/09/27 02:41:26;;;;;;;8.02;4.30;;;;;;;19.14;75.84;100079.81;5041906;28;20583;-65
2023/09/27 02:43:51;;;;;;;9.43;4.22;;;;;;;19.16;75.99;100079.59;5042464;28;20033;-65
2023/09/27 02:46:17;;;;;;;10.20;4.47;;;;;;;19.23;75.34;100085.78;5040231;28;20034;-65
2023/09/27 02:48:43;;;;;;;11.77;4.88;;;;;;;19.36;74.52;100091.13;5042166;28;20033;-67
2023/09/27 02:51:08;;;;;;;10.02;4.22;;;;;;;19.36;74.32;100086.56;5042296;28;20059;-65
2023/09/27 02:53:34;;;;;;;10.05;4.90;;;;;;;19.32;74.57;100088.03;5042071;28;20033;-67
2023/09/27 02:55:59;;;;;;;8.32;4.40;;;;;;;19.33;74.42;100094.22;5042537;28;20042;-67
2023/09/27 02:58:25;;;;;;;7.63;4.13;;;;;;;19.25;74.76;100099.81;5042884;28;20071;-65
2023/09/27 03:00:52;;;;;;;9.32;4.43;;;;;;;19.22;75.00;100095.69;5041551;28;20342;-67
2023/09/27 03:03:19;;;;;;;8.40;3.97;;;;;;;19.21;74.67;100101.28;5041616;28;20103;-67
2023/09/27 03:05:44;;;;;;;7.60;4.47;;;;;;;19.33;73.63;100095.06;5041970;28;20119;-67
2023/09/27 03:08:10;;;;;;;7.82;4.68;;;;;;;19.27;73.46;100090.53;5041967;28;20383;-65
2023/09/27 03:10:42;;;;;;;8.60;4.43;;;;;;;19.22;72.88;100094.88;5041509;28;20216;-67
2023/09/27 03:13:09;;;;;;;6.18;3.78;;;;;;;19.25;72.53;100094.44;5040728;28;20069;-65
2023/09/27 03:15:35;;;;;;;6.60;4.15;;;;;;;19.33;71.95;100097.72;5040442;28;20091;-67
2023/09/27 03:18:02;;;;;;;8.38;4.38;;;;;;;19.42;71.54;100104.53;5041329;28;20040;-67
2023/09/27 03:20:28;;;;;;;6.28;4.10;;;;;;;19.48;71.10;100107.41;5040983;28;20323;-65
2023/09/27 03:22:53;;;;;;;8.45;3.85;;;;;;;19.44;71.54;100113.19;5041045;28;20090;-67
2023/09/27 03:25:19;;;;;;;6.13;4.00;;;;;;;19.50;71.89;100111.53;5050261;28;20032;-67
2023/09/27 03:27:45;;;;;;;11.27;4.88;;;;;;;19.44;72.39;100110.50;5044050;28;20036;-66
2023/09/27 03:30:11;;;;;;;11.95;4.30;;;;;;;19.53;72.53;100103.09;5046351;28;20037;-65
2023/09/27 03:32:36;;;;;;;11.57;5.57;;;;;;;19.63;72.28;100110.69;5050015;28;20311;-64
2023/09/27 03:35:02;;;;;;;12.13;4.65;;;;;;;19.56;73.62;100109.88;5040899;28;20051;-67
2023/09/27 03:37:28;;;;;;;13.95;4.97;;;;;;;19.59;73.85;100118.34;5045383;28;20091;-65
2023/09/27 03:39:53;;;;;;;11.60;5.45;;;;;;;19.61;74.20;100120.81;5043975;28;20314;-67
2023/09/27 03:42:20;;;;;;;15.90;5.70;;;;;;;19.59;73.97;100118.34;5041181;28;20033;-67
2023/09/27 03:44:47;;;;;;;39.90;9.20;;;;;;;19.52;73.67;100117.53;5040941;28;20053;-65
2023/09/27 03:47:12;;;;;;;50.28;9.23;;;;;;;19.46;73.71;100118.34;5050833;28;20090;-67
2023/09/27 03:49:40;;;;;;;25.05;7.03;;;;;;;19.53;74.12;100116.50;5041478;28;20033;-64
2023/09/27 03:52:06;;;;;;;13.43;6.20;;;;;;;19.46;74.82;100119.19;5040580;28;20396;-65
2023/09/27 03:54:32;;;;;;;17.42;6.18;;;;;;;19.21;75.59;100115.53;5041379;28;20571;-65
2023/09/27 03:56:58;;;;;;;13.18;6.03;;;;;;;19.27;75.82;100116.53;5041658;28;20044;-67
2023/09/27 03:59:23;;;;;;;10.88;5.40;;;;;;;19.12;76.59;100114.91;5041572;28;20242;-67
2023/09/27 04:01:49;;;;;;;12.90;5.60;;;;;;;19.11;76.62;100117.81;5040853;28;20029;-64
2023/09/27 04:04:15;;;;;;;11.52;6.00;;;;;;;19.08;76.67;100116.38;5040780;28;20406;-67
2023/09/27 04:06:40;;;;;;;12.35;6.15;;;;;;;19.24;76.07;100119.66;5048774;28;20056;-65
2023/09/27 04:09:07;;;;;;;12.05;7.32;;;;;;;19.36;75.44;100115.28;5040805;28;20075;-64
2023/09/27 04:11:32;;;;;;;13.93;7.65;;;;;;;19.38;75.20;100118.59;5040957;28;20033;-67
2023/09/27 04:13:57;;;;;;;12.45;6.57;;;;;;;19.33;75.37;100123.75;5040600;28;20246;-66
2023/09/27 04:16:23;;;;;;;12.88;5.70;;;;;;;19.34;75.58;100120.03;5040809;28;20029;-66
2023/09/27 04:18:49;;;;;;;11.65;5.95;;;;;;;19.37;75.15;100128.50;5040045;28;20033;-67
2023/09/27 04:21:14;;;;;;;13.90;5.80;;;;;;;19.37;75.49;100131.19;5040720;28;20097;-67
2023/09/27 04:23:41;;;;;;;12.45;5.72;;;;;;;19.04;77.11;100127.72;5040494;28;20037;-67
2023/09/27 04:26:09;;;;;;;14.07;5.75;;;;;;;18.97;77.86;100133.09;5040380;28;20083;-65
2023/09/27 04:28:34;;;;;;;15.00;6.05;;;;;;;19.01;77.80;100125.47;5049422;28;20083;-65
2023/09/27 04:31:00;;;;;;;12.25;6.22;;;;;;;18.94;78.32;100135.38;5040965;28;20049;-67
2023/09/27 04:33:26;;;;;;;11.15;5.30;;;;;;;18.99;78.49;100141.75;5044935;28;20041;-67
2023/09/27 04:35:51;;;;;;;10.70;5.03;;;;;;;19.04;78.40;100136.59;5042568;28;20049;-67
2023/09/27 04:38:17;;;;;;;12.50;5.50;;;;;;;19.13;77.83;100139.91;5039846;28;20354;-64
2023/09/27 04:40:43;;;;;;;13.63;6.28;;;;;;;19.18;77.32;100139.28;5039925;28;20343;-66
2023/09/27 04:43:08;;;;;;;14.45;7.75;;;;;;;18.85;78.93;100153.53;5040287;28;20414;-64
2023/09/27 04:45:34;;;;;;;12.18;8.20;;;;;;;18.97;78.63;100148.38;5039391;28;20045;-67
2023/09/27 04:48:00;;;;;;;17.65;10.35;;;;;;;19.02;78.56;100145.91;5039879;28;20056;-65
2023/09/27 04:50:28;;;;;;;18.38;9.50;;;;;;;18.80;79.85;100145.28;5039521;28;20032;-67
2023/09/27 04:52:54;;;;;;;18.30;9.48;;;;;;;18.90;79.75;100150.22;5047416;28;20049;-67
2023/09/27 04:55:19;;;;;;;18.40;9.55;;;;;;;18.85;80.01;100155.38;5039757;28;20040;-67
2023/09/27 04:57:45;;;;;;;21.67;7.45;;;;;;;18.79;80.48;100152.50;5040003;28;20042;-67
2023/09/27 05:00:14;;;;;;;18.88;7.10;;;;;;;18.99;79.49;100149.81;5039694;28;20091;-65
2023/09/27 05:02:41;;;;;;;17.13;6.88;;;;;;;19.09;79.27;100158.28;5039432;28;20369;-67
2023/09/27 05:05:07;;;;;;;21.73;7.85;;;;;;;19.22;78.58;100152.06;5039973;28;20313;-66
2023/09/27 05:07:33;;;;;;;24.25;7.70;;;;;;;19.11;79.12;100150.84;5041939;28;20231;-67
2023/09/27 05:09:59;;;;;;;20.05;7.75;;;;;;;19.06;79.83;100145.28;5040345;28;20033;-67
2023/09/27 05:12:24;;;;;;;17.38;7.10;;;;;;;19.06;80.64;100145.28;5040757;28;20029;-67
2023/09/27 05:14:49;;;;;;;18.50;7.15;;;;;;;19.09;80.93;100146.72;5040665;28;20338;-65
2023/09/27 05:17:15;;;;;;;18.52;7.05;;;;;;;19.22;80.67;100152.06;5043402;28;20037;-67
2023/09/27 05:19:40;;;;;;;14.43;7.30;;;;;;;18.99;81.58;100143.63;5044206;28;20033;-64
2023/09/27 05:22:06;;;;;;;17.17;7.57;;;;;;;19.21;81.11;100149.59;5044901;28;20032;-65
2023/09/27 05:24:38;;;;;;;11.25;6.25;;;;;;;19.34;81.03;100152.25;5043731;28;20230;-67
2023/09/27 05:27:05;;;;;;;13.50;6.72;;;;;;;19.44;80.58;100152.66;5042495;28;20039;-67
2023/09/27 05:29:31;;;;;;;18.10;7.15;;;;;;;19.52;80.47;100154.28;5052494;28;21236;-64
2023/09/27 05:31:56;;;;;;;13.25;6.50;;;;;;;19.61;80.57;100156.56;5042659;28;20025;-67
2023/09/27 05:34:22;;;;;;;17.52;6.95;;;;;;;19.68;80.77;100157.38;5043237;28;20043;-67
2023/09/27 05:36:48;;;;;;;14.82;6.93;;;;;;;19.75;80.79;100155.50;5042869;28;20351;-64
2023/09/27 05:39:13;;;;;;;13.98;6.85;;;;;;;19.87;80.33;100160.25;5043274;28;20033;-65
2023/09/27 05:41:39;;;;;;;10.02;6.97;;;;;;;19.66;80.79;100164.00;5051599;28;20053;-67
2023/09/27 05:44:05;;;;;;;18.77;7.75;;;;;;;19.95;80.16;100168.06;5043889;28;20091;-67
2023/09/27 05:46:33;;;;;;;13.90;7.18;;;;;;;19.79;80.02;100171.22;5043080;28;20041;-66
2023/09/27 05:49:01;;;;;;;16.92;7.85;;;;;;;19.88;79.75;100178.00;5044178;28;20304;-67
2023/09/27 05:51:29;;;;;;;15.15;7.15;;;;;;;20.06;77.69;100181.66;5056296;28;20063;-65
2023/09/27 05:53:54;;;;;;;18.05;8.35;;;;;;;20.11;76.67;100186.41;5056387;28;20100;-65
2023/09/27 05:56:20;;;;;;;11.15;7.25;;;;;;;20.21;76.21;100186.78;5056641;28;20385;-67
2023/09/27 05:58:45;;;;;;;13.50;6.70;;;;;;;20.37;75.61;100188.97;5056098;28;20075;-67
2023/09/27 06:01:11;;;;;;;13.52;7.72;;;;;;;20.60;75.27;100195.69;5055107;28;20037;-67
2023/09/27 06:03:38;;;;;;;19.75;8.68;;;;;;;20.68;74.92;100192.75;5055481;28;20044;-67
2023/09/27 06:06:04;;;;;;;17.73;7.72;;;;;;;20.99;74.15;100198.16;5055121;28;20048;-67
2023/09/27 06:08:30;;;;;;;18.55;8.40;;;;;;;21.16;72.91;100195.72;5055011;28;20056;-67
2023/09/27 06:10:56;;;;;;;15.35;8.27;;;;;;;21.23;72.12;100195.72;5055005;28;20029;-67
2023/09/27 06:13:22;;;;;;;16.25;6.10;;;;;;;21.25;70.87;100196.31;5055050;28;20036;-64
2023/09/27 06:15:48;;;;;;;20.25;6.95;;;;;;;21.34;70.46;100200.38;5055365;28;20226;-65
2023/09/27 06:18:13;;;;;;;17.92;6.15;;;;;;;21.27;71.24;100199.59;5055195;28;20049;-65
2023/09/27 06:20:40;;;;;;;16.33;6.07;;;;;;;21.56;70.04;100192.69;5056025;28;20345;-67
2023/09/27 06:23:06;;;;;;;16.45;7.93;;;;;;;21.68;69.87;100185.53;5056057;28;20358;-64
2023/09/27 06:25:34;;;;;;;11.20;6.28;;;;;;;21.66;69.33;100193.00;5054564;28;20282;-64
2023/09/27 06:28:00;;;;;;;12.20;6.00;;;;;;;21.77;70.30;100188.75;5055635;28;20309;-67
2023/09/27 06:30:26;;;;;;;9.90;6.35;;;;;;;22.02;68.27;100186.81;5054923;28;20033;-67
2023/09/27 06:32:51;;;;;;;19.17;6.65;;;;;;;22.15;68.02;100200.19;5054824;28;20047;-65
2023/09/27 06:35:17;;;;;;;12.48;5.80;;;;;;;22.33;66.36;100202.03;5054509;28;20037;-65
2023/09/27 06:37:48;;;;;;;12.15;5.50;;;;;;;22.59;66.08;100201.66;5054920;28;20032;-65
2023/09/27 06:40:16;;;;;;;18.40;6.88;;;;;;;22.73;64.56;100199.59;5055731;28;20342;-67
2023/09/27 06:42:45;;;;;;;13.13;5.22;;;;;;;22.86;65.17;100198.59;5057295;28;20032;-65
2023/09/27 06:45:12;;;;;;;10.63;4.90;;;;;;;22.97;64.75;100199.72;5057463;28;20063;-65
2023/09/27 06:47:41;;;;;;;18.27;5.55;;;;;;;23.01;64.00;100196.31;5057664;28;20068;-63
2023/09/27 06:50:08;;;;;;;10.55;5.15;;;;;;;23.00;64.54;100210.88;5057829;28;20124;-65
2023/09/27 06:52:34;;;;;;;11.43;5.25;;;;;;;23.11;64.78;100199.25;5058139;28;20045;-65
2023/09/27 06:55:00;;;;;;;18.60;6.65;;;;;;;23.31;64.24;100200.81;5057997;28;20036;-63
2023/09/27 06:57:26;;;;;;;9.40;5.03;;;;;;;23.47;62.98;100198.22;5058417;28;20326;-64
2023/09/27 06:59:51;;;;;;;13.50;5.38;;;;;;;23.59;62.53;100195.56;5057354;28;20029;-63
2023/09/27 07:02:17;;;;;;;11.10;5.43;;;;;;;23.70;62.21;100196.59;5057012;28;20052;-65
2023/09/27 07:04:42;;;;;;;12.30;4.97;;;;;;;23.71;61.75;100196.38;5056835;28;20449;-65
2023/09/27 07:07:09;;;;;;;10.48;4.75;;;;;;;23.71;61.06;100201.78;5057510;28;20099;-63
2023/09/27 07:09:34;;;;;;;8.00;4.35;;;;;;;23.61;60.44;100203.44;5056786;28;20159;-65
2023/09/27 07:12:00;;;;;;;11.88;5.10;;;;;;;23.87;61.34;100198.34;5057191;28;20029;-65
2023/09/27 07:14:26;;;;;;;11.98;4.38;;;;;;;23.81;60.87;100195.75;5057652;28;20345;-65
2023/09/27 07:16:51;;;;;;;8.15;4.55;;;;;;;23.88;60.51;100199.97;5057104;28;20040;-64
2023/09/27 07:19:17;;;;;;;10.82;4.88;;;;;;;24.08;59.52;100205.03;5057236;28;20037;-63
2023/09/27 07:21:44;;;;;;;10.50;4.63;;;;;;;24.14;59.18;100201.34;5056679;28;20029;-63
2023/09/27 07:24:10;;;;;;;10.13;4.38;;;;;;;24.31;58.38;100206.88;5056623;28;20242;-65
2023/09/27 07:26:41;;;;;;;10.13;4.22;;;;;;;24.44;58.34;100201.16;5056701;28;20226;-65
2023/09/27 07:29:07;;;;;;;8.90;4.80;;;;;;;24.42;57.46;100199.75;5057290;28;20069;-64
2023/09/27 07:31:32;;;;;;;8.43;3.88;;;;;;;24.69;56.41;100197.28;5067849;28;20044;-64
2023/09/27 07:33:58;;;;;;;8.60;4.55;;;;;;;24.74;54.73;100195.50;5057374;28;20038;-65
2023/09/27 07:36:26;;;;;;;7.78;4.40;;;;;;;24.77;53.62;100192.28;5057839;28;20070;-65
2023/09/27 07:38:52;;;;;;;11.32;4.40;;;;;;;24.91;54.64;100198.22;5056911;28;20041;-63
2023/09/27 07:41:18;;;;;;;8.00;3.88;;;;;;;25.01;54.35;100203.88;5057128;28;20051;-63
2023/09/27 07:43:43;;;;;;;8.52;4.70;;;;;;;25.13;54.47;100198.38;5056894;28;20047;-63
2023/09/27 07:46:12;;;;;;;12.10;4.72;;;;;;;25.29;53.63;100199.44;5056675;28;20047;-67
2023/09/27 07:48:39;;;;;;;9.07;4.85;;;;;;;25.40;52.78;100201.22;5056884;28;20045;-66
2023/09/27 07:51:11;;;;;;;10.77;5.22;;;;;;;25.46;51.41;100194.81;5057604;28;20037;-65
2023/09/27 07:53:37;;;;;;;7.30;4.27;;;;;;;25.50;50.91;100190.53;5056431;28;20045;-64
2023/09/27 07:56:03;;;;;;;11.05;4.28;;;;;;;25.51;51.71;100194.06;5053391;28;20074;-65
2023/09/27 07:58:29;;;;;;;9.35;4.55;;;;;;;25.58;51.57;100190.09;5053669;28;20090;-67
2023/09/27 08:00:54;;;;;;;8.18;4.25;;;;;;;25.60;50.80;100190.69;5052471;28;20029;-65
2023/09/27 08:03:21;;;;;;;7.10;3.63;;;;;;;25.73;51.17;100187.63;5054113;28;20111;-65
2023/09/27 08:05:50;;;;;;;10.85;4.07;;;;;;;25.85;50.50;100192.94;5053035;28;20027;-65
2023/09/27 08:08:15;;;;;;;9.82;3.70;;;;;;;25.80;49.16;100187.44;5051680;28;20053;-67
2023/09/27 08:10:43;;;;;;;11.18;4.28;;;;;;;25.87;49.85;100181.84;5052705;28;20079;-67
2023/09/27 08:13:16;;;;;;;7.65;3.88;;;;;;;25.77;49.49;100183.34;5053500;28;20051;-67
2023/09/27 08:15:42;;;;;;;9.40;4.50;;;;;;;25.55;50.15;100196.03;5053762;28;20420;-65
2023/09/27 08:18:08;;;;;;;7.57;4.13;;;;;;;25.40;50.43;100198.50;5054236;28;20235;-65
2023/09/27 08:20:35;;;;;;;10.50;4.05;;;;;;;25.39;51.20;100196.88;5053141;28;20033;-67
2023/09/27 08:23:01;;;;;;;9.85;4.10;;;;;;;25.24;50.54;100193.94;5054185;28;20084;-67
2023/09/27 08:25:26;;;;;;;12.48;3.90;;;;;;;25.10;52.57;100204.28;5053605;28;20270;-67
2023/09/27 08:27:52;;;;;;;8.60;3.72;;;;;;;25.13;51.51;100203.78;5052661;28;20045;-65
2023/09/27 08:30:18;;;;;;;13.13;4.30;;;;;;;25.15;52.07;100207.06;5052848;28;20040;-64
2023/09/27 08:32:44;;;;;;;9.73;5.15;;;;;;;25.15;50.41;100201.66;5054812;28;20033;-65
2023/09/27 08:35:10;;;;;;;8.18;3.67;;;;;;;25.15;52.19;100198.94;5053925;28;20304;-67
2023/09/27 08:37:35;;;;;;;9.85;3.85;;;;;;;25.08;50.64;100201.81;5052194;28;20033;-67
2023/09/27 08:40:04;;;;;;;16.27;4.03;;;;;;;25.10;50.83;100204.28;5051851;28;20369;-68
2023/09/27 08:42:32;;;;;;;9.68;3.85;;;;;;;25.07;51.60;100197.47;5052300;28;20091;-67
2023/09/27 08:44:59;;;;;;;11.05;3.95;;;;;;;25.16;51.86;100194.34;5051203;28;20071;-67
2023/09/27 08:47:25;;;;;;;7.82;4.50;;;;;;;25.15;52.16;100193.53;5051656;28;20048;-65
2023/09/27 08:49:51;;;;;;;8.35;3.75;;;;;;;25.21;51.78;100189.81;5052250;28;20067;-67
2023/09/27 08:52:17;;;;;;;8.93;3.47;;;;;;;25.23;50.82;100186.88;5055718;28;20043;-65
2023/09/27 08:54:43;;;;;;;6.07;3.88;;;;;;;25.26;50.12;100187.19;5054861;28;20143;-67
2023/09/27 08:57:10;;;;;;;7.55;3.28;;;;;;;25.32;49.73;100191.63;5056756;28;20041;-67
2023/09/27 08:59:36;;;;;;;16.17;3.75;;;;;;;25.39;49.18;100192.28;5055991;28;20311;-66
2023/09/27 09:02:04;;;;;;;6.78;3.53;;;;;;;25.34;48.13;100194.91;5056076;28;20114;-67
2023/09/27 09:04:31;;;;;;;17.38;5.45;;;;;;;25.39;48.16;100186.84;5056989;28;20310;-67
2023/09/27 09:06:57;;;;;;;7.85;3.97;;;;;;;25.42;49.56;100185.53;5055585;28;20044;-65
2023/09/27 09:09:25;;;;;;;6.68;3.80;;;;;;;25.34;49.92;100189.50;5055464;28;20057;-65
2023/09/27 09:11:54;;;;;;;7.70;3.92;;;;;;;25.41;48.84;100181.19;5055915;28;20067;-66
2023/09/27 09:14:37;;;;;;;8.32;3.78;;;;;;;25.34;48.72;100188.66;5055273;28;20033;-67
2023/09/27 09:17:02;;;;;;;11.73;3.92;;;;;;;25.42;49.71;100178.22;5055755;28;20051;-65
2023/09/27 09:19:31;;;;;;;7.43;3.63;;;;;;;25.50;48.80;100184.28;5059491;28;20037;-65
2023/09/27 09:22:08;;;;;;;6.97;3.45;;;;;;;25.44;47.53;100180.69;5055990;28;20101;-68
2023/09/27 09:24:43;;;;;;;10.82;3.55;;;;;;;25.46;47.27;100182.06;5064356;28;20033;-68
2023/09/27 09:27:15;;;;;;;10.77;3.85;;;;;;;25.54;47.39;100177.31;5056508;28;20565;-67
2023/09/27 09:29:48;;;;;;;14.25;3.90;;;;;;;25.63;48.09;100178.50;5056005;28;20350;-65
2023/09/27 09:32:15;;;;;;;166.50;18.57;;;;;;;25.61;46.27;100173.34;5056455;28;20029;-66
2023/09/27 09:34:42;;;;;;;12.60;3.80;;;;;;;25.76;48.80;100172.75;5056486;28;20025;-67
2023/09/27 09:37:26;;;;;;;9.77;3.80;;;;;;;25.73;45.87;100176.78;5055678;28;20040;-65
2023/09/27 09:39:53;;;;;;;13.02;4.70;;;;;;;25.85;47.54;100163.09;5056204;28;20044;-66
2023/09/27 09:42:33;;;;;;;10.18;5.07;;;;;;;25.88;47.58;100168.03;5055034;28;20040;-68
2023/09/27 09:45:12;;;;;;;11.25;4.03;;;;;;;25.96;47.62;100162.16;5053898;28;20048;-65
2023/09/27 09:47:39;;;;;;;9.07;3.72;;;;;;;25.94;45.88;100160.78;5055459;28;20037;-65
2023/09/27 09:50:14;;;;;;;14.02;4.13;;;;;;;25.98;45.87;100162.72;5054966;28;20485;-68
2023/09/27 09:52:39;;;;;;;7.32;3.33;;;;;;;25.93;44.76;100164.56;5055176;28;20092;-67
2023/09/27 09:55:11;;;;;;;8.35;3.63;;;;;;;25.96;46.80;100161.34;5055261;28;20044;-68
2023/09/27 09:57:40;;;;;;;10.13;3.65;;;;;;;26.02;46.55;100160.34;5055458;28;20188;-65
2023/09/27 10:00:18;;;;;;;12.75;3.75;;;;;;;25.81;44.62;100151.13;5055781;28;20036;-67
2023/09/27 10:02:53;;;;;;;11.95;4.20;;;;;;;25.85;43.94;100149.53;5055477;28;20043;-66
2023/09/27 10:05:22;;;;;;;9.68;3.72;;;;;;;25.84;47.00;100144.38;5054861;28;20122;-65
2023/09/27 10:07:49;;;;;;;12.15;3.55;;;;;;;25.89;46.84;100147.16;5054233;28;20048;-67
2023/09/27 10:10:18;;;;;;;8.35;3.88;;;;;;;25.92;44.92;100144.75;5054179;28;20037;-67
2023/09/27 10:12:46;;;;;;;7.38;3.90;;;;;;;25.99;45.68;100141.84;5054412;28;20066;-67
2023/09/27 10:15:16;;;;;;;9.40;3.47;;;;;;;26.03;43.48;100141.09;5054133;28;20357;-67
2023/09/27 10:17:41;;;;;;;65.35;10.10;;;;;;;25.89;43.49;100123.53;5054820;28;20344;-67
2023/09/27 10:20:12;;;;;;;21.13;4.80;;;;;;;25.93;43.25;100132.00;5054162;28;20040;-65
2023/09/27 10:22:42;;;;;;;61.00;9.63;;;;;;;25.84;44.19;100126.19;5054886;28;20045;-65
2023/09/27 10:25:26;;;;;;;8.57;3.58;;;;;;;25.74;43.75;100126.91;5054620;28;20056;-67
2023/09/27 10:28:12;;;;;;;70.38;8.70;;;;;;;25.67;43.80;100120.03;5054568;28;20074;-66
2023/09/27 10:30:40;;;;;;;15.45;4.10;;;;;;;25.72;45.60;100115.47;5053934;28;20361;-65
2023/09/27 10:33:15;;;;;;;7.68;4.10;;;;;;;25.76;43.99;100103.06;5054110;28;20049;-67
2023/09/27 10:36:07;;;;;;;13.05;4.95;;;;;;;25.86;43.30;100102.34;5054833;28;20242;-65
2023/09/27 10:38:41;;;;;;;10.23;3.83;;;;;;;25.99;44.63;100098.41;5055108;28;20198;-67
2023/09/27 10:41:07;;;;;;;11.85;4.85;;;;;;;25.96;43.92;100091.63;5053021;28;20066;-65
2023/09/27 10:43:35;;;;;;;9.70;3.50;;;;;;;26.00;44.35;100095.44;5054369;28;20072;-67
2023/09/27 10:46:04;;;;;;;10.93;3.63;;;;;;;25.91;43.17;100091.56;5053862;28;20066;-67
2023/09/27 10:48:31;;;;;;;7.05;3.53;;;;;;;26.03;43.71;100089.53;5053937;28;20045;-65
2023/09/27 10:50:57;;;;;;;14.23;3.90;;;;;;;26.16;43.59;100087.50;5052694;28;20234;-65
2023/09/27 10:53:30;;;;;;;32.50;5.85;;;;;;;26.23;43.24;100083.50;5053135;28;20052;-66
2023/09/27 10:55:55;;;;;;;9.90;3.78;;;;;;;26.32;40.82;100086.56;5054164;28;20445;-65
2023/09/27 10:58:21;;;;;;;7.15;3.40;;;;;;;26.37;40.53;100075.78;5053609;28;20319;-65
2023/09/27 11:00:57;;;;;;;11.00;3.42;;;;;;;26.41;40.85;100071.50;5052645;28;20028;-65
2023/09/27 11:03:33;;;;;;;7.93;3.58;;;;;;;26.38;41.34;100063.84;5053652;28;20033;-65
2023/09/27 11:06:12;;;;;;;13.70;3.92;;;;;;;26.46;42.91;100059.84;5055119;28;20420;-67
2023/09/27 11:08:38;;;;;;;10.93;4.43;;;;;;;26.38;40.67;100063.84;5056207;28;20116;-67
2023/09/27 11:11:07;;;;;;;5.70;3.28;;;;;;;26.25;41.12;100058.81;5056629;28;20119;-65
2023/09/27 11:13:32;;;;;;;7.72;3.33;;;;;;;26.18;40.50;100067.16;5057090;28;20095;-67
2023/09/27 11:16:14;;;;;;;5.85;3.28;;;;;;;26.21;40.17;100060.41;5057114;28;20325;-67
2023/09/27 11:18:44;;;;;;;41.42;7.30;;;;;;;26.30;41.10;100059.69;5065710;28;20032;-67
2023/09/27 11:21:11;;;;;;;7.53;3.78;;;;;;;26.38;40.41;100061.16;5056195;28;20386;-65
2023/09/27 11:23:56;;;;;;;5.65;3.20;;;;;;;26.34;39.74;100054.59;5057415;28;20036;-66